Home   Weather   Iran   Tabriz   Past weeks
Flag for Iran

Past Weather in Tabriz, Iran — Yesterday and Last 2 Weeks

Currently: 75 °F. Clear. (Weather station: Tabriz Airport, Iran). See more current weather

Past Weather in Tabriz — Graph

°F

Tabriz Temperature Yesterday

Maximum temperature yesterday: 100 °F (at 5:30 pm)
Minimum temperature yesterday: 73 °F (at 5:30 am)
Average temperature yesterday: 85 °F

High & Low Weather Summary for the Past Weeks

 TemperatureHumidityPressure
High100 °F (Aug 3, 3:00 pm)69% (Aug 9, 5:30 am)30.09 "Hg (Aug 9, 5:30 am)
Low68 °F (Aug 9, 5:30 am)12% (Jul 31, 6:30 pm)29.71 "Hg (Aug 7, 6:30 pm)
Average84 °F36%29.93 "Hg
* Reported Jul 28 6:30 am — Aug 12 6:30 am, Tabriz. Weather by CustomWeather, © 2022

Note: Actual official high and low records may vary slightly from our data, if they occured in-between our weather recording intervals... More about our weather records

Tabriz Weather History for the Previous 24 Hours

Scroll right to see more
 ConditionsComfort  
Time TempWeatherWind HumidityBarometerVisibility
6:30 am
Fri, Aug 12
75 °FClear.12 mph50%29.92 "Hg10 mi
6:00 am75 °FClear.16 mph54%29.92 "Hg10 mi
5:30 am77 °FClear.16 mph51%29.92 "Hg10 mi
4:00 am77 °FClear.12 mph51%29.89 "Hg10 mi
3:30 am77 °FClear.14 mph47%29.89 "Hg10 mi
3:00 am79 °FClear.18 mph45%29.89 "Hg10 mi
2:00 am79 °FClear.14 mph45%29.89 "Hg10 mi
1:30 am79 °FClear.18 mph48%29.89 "Hg10 mi
1:00 am79 °FClear.21 mph45%29.89 "Hg10 mi
12:30 am79 °FClear.18 mph48%29.89 "Hg10 mi
12:00 am81 °FClear.18 mph42%29.89 "Hg10 mi
11:30 pm
Thu, Aug 11
82 °FClear.14 mph40%29.89 "Hg10 mi
11:00 pm82 °FClear.12 mph40%29.89 "Hg10 mi
10:30 pm84 °FClear.16 mph37%29.89 "Hg10 mi
10:00 pm84 °FClear.9 mph37%29.89 "Hg10 mi
9:30 pm86 °FClear.9 mph35%29.86 "Hg10 mi
9:00 pm88 °FClear.12 mph31%29.86 "Hg10 mi
8:30 pm91 °FSunny.12 mph28%29.83 "Hg10 mi
8:00 pm93 °FSunny.14 mph26%29.83 "Hg10 mi
7:30 pm95 °FSunny.14 mph23%29.83 "Hg10 mi
7:00 pm99 °FPassing clouds.12 mph19%29.80 "HgN/A
5:30 pm100 °FPassing clouds.5 mph18%29.83 "HgN/A
5:00 pm99 °FPassing clouds.9 mph19%29.83 "HgN/A
4:30 pm99 °FPassing clouds.5 mph18%29.83 "HgN/A
3:30 pm97 °FPassing clouds.5 mph23%29.86 "HgN/A
3:00 pm97 °FPassing clouds.2 mph22%29.86 "HgN/A
2:30 pm95 °FPassing clouds.7 mph23%29.86 "HgN/A
2:00 pm93 °FSunny.2 mph26%29.89 "Hg10 mi
1:30 pm93 °FSunny.7 mph24%29.89 "Hg10 mi
1:00 pm91 °FSunny.5 mph26%29.89 "Hg10 mi
12:30 pm90 °FSunny.5 mph27%29.89 "Hg10 mi
11:30 am86 °FSunny.14 mph31%29.92 "Hg10 mi
10:30 am81 °FSunny.14 mph37%29.92 "Hg10 mi
9:30 am79 °FSunny.16 mph39%29.92 "Hg10 mi
9:00 am77 °FSunny.16 mph42%29.92 "Hg10 mi
8:30 am75 °FSunny.21 mph44%29.92 "Hg10 mi
7:30 am73 °FSunny.21 mph47%29.92 "Hg10 mi
7:00 am73 °FClear.21 mph47%29.92 "Hg10 mi
Weather by CustomWeather, © 2022

See weather overview